sensor_id;sensor_type;location;lat;lon;timestamp;temperature;humidity
39519;DHT22;25200;53.394;10.414;2023-02-15T00:00:20;5.20;91.80
39519;DHT22;25200;53.394;10.414;2023-02-15T00:02:45;5.20;91.80
39519;DHT22;25200;53.394;10.414;2023-02-15T00:05:11;5.30;91.80
39519;DHT22;25200;53.394;10.414;2023-02-15T00:07:37;5.30;91.80
39519;DHT22;25200;53.394;10.414;2023-02-15T00:10:03;5.30;91.80
39519;DHT22;25200;53.394;10.414;2023-02-15T00:12:29;5.30;91.80
39519;DHT22;25200;53.394;10.414;2023-02-15T00:14:55;5.30;91.80
39519;DHT22;25200;53.394;10.414;2023-02-15T00:17:21;5.30;91.80
39519;DHT22;25200;53.394;10.414;2023-02-15T00:19:46;5.30;91.80
39519;DHT22;25200;53.394;10.414;2023-02-15T00:22:12;5.30;91.80
39519;DHT22;25200;53.394;10.414;2023-02-15T00:24:38;5.30;91.80
39519;DHT22;25200;53.394;10.414;2023-02-15T00:27:03;5.30;91.80
39519;DHT22;25200;53.394;10.414;2023-02-15T00:29:29;5.30;91.80
39519;DHT22;25200;53.394;10.414;2023-02-15T00:31:55;5.30;91.80
39519;DHT22;25200;53.394;10.414;2023-02-15T00:34:25;5.30;91.90
39519;DHT22;25200;53.394;10.414;2023-02-15T00:36:51;5.30;91.90
39519;DHT22;25200;53.394;10.414;2023-02-15T00:39:18;5.30;91.90
39519;DHT22;25200;53.394;10.414;2023-02-15T00:41:45;5.30;91.90
39519;DHT22;25200;53.394;10.414;2023-02-15T00:44:11;5.30;91.80
39519;DHT22;25200;53.394;10.414;2023-02-15T00:46:37;5.30;91.90
39519;DHT22;25200;53.394;10.414;2023-02-15T00:49:04;5.30;91.90
39519;DHT22;25200;53.394;10.414;2023-02-15T00:51:30;5.30;91.90
39519;DHT22;25200;53.394;10.414;2023-02-15T00:53:55;5.30;91.90
39519;DHT22;25200;53.394;10.414;2023-02-15T00:56:21;5.30;91.80
39519;DHT22;25200;53.394;10.414;2023-02-15T00:58:46;5.30;91.90
39519;DHT22;25200;53.394;10.414;2023-02-15T01:01:17;5.30;91.90
39519;DHT22;25200;53.394;10.414;2023-02-15T01:03:44;5.30;91.80
39519;DHT22;25200;53.394;10.414;2023-02-15T01:06:11;5.30;91.90
39519;DHT22;25200;53.394;10.414;2023-02-15T01:08:37;5.30;91.90
39519;DHT22;25200;53.394;10.414;2023-02-15T01:11:09;5.30;92.10
39519;DHT22;25200;53.394;10.414;2023-02-15T01:13:35;5.30;91.80
39519;DHT22;25200;53.394;10.414;2023-02-15T01:16:02;5.30;91.90
39519;DHT22;25200;53.394;10.414;2023-02-15T01:18:28;5.30;91.90
39519;DHT22;25200;53.394;10.414;2023-02-15T01:20:54;5.30;92.00
39519;DHT22;25200;53.394;10.414;2023-02-15T01:23:20;5.30;91.90
39519;DHT22;25200;53.394;10.414;2023-02-15T01:25:45;5.30;91.90
39519;DHT22;25200;53.394;10.414;2023-02-15T01:28:11;5.30;91.90
39519;DHT22;25200;53.394;10.414;2023-02-15T01:30:37;5.30;91.90
39519;DHT22;25200;53.394;10.414;2023-02-15T01:33:03;5.30;91.90
39519;DHT22;25200;53.394;10.414;2023-02-15T01:35:29;5.30;91.90
39519;DHT22;25200;53.394;10.414;2023-02-15T01:37:55;5.30;91.90
39519;DHT22;25200;53.394;10.414;2023-02-15T01:40:22;5.30;91.90
39519;DHT22;25200;53.394;10.414;2023-02-15T01:42:52;5.30;91.90
39519;DHT22;25200;53.394;10.414;2023-02-15T01:48:04;5.20;91.90
39519;DHT22;25200;53.394;10.414;2023-02-15T01:50:34;5.20;91.90
39519;DHT22;25200;53.394;10.414;2023-02-15T01:53:03;5.20;91.90
39519;DHT22;25200;53.394;10.414;2023-02-15T01:55:34;5.20;91.90
39519;DHT22;25200;53.394;10.414;2023-02-15T01:58:02;5.30;91.90
39519;DHT22;25200;53.394;10.414;2023-02-15T02:00:28;5.20;91.90
39519;DHT22;25200;53.394;10.414;2023-02-15T02:02:55;5.20;91.90
39519;DHT22;25200;53.394;10.414;2023-02-15T02:05:22;5.20;91.90
39519;DHT22;25200;53.394;10.414;2023-02-15T02:07:49;5.20;92.00
39519;DHT22;25200;53.394;10.414;2023-02-15T02:10:18;5.20;91.90
39519;DHT22;25200;53.394;10.414;2023-02-15T02:12:47;5.20;91.90
39519;DHT22;25200;53.394;10.414;2023-02-15T02:15:15;5.20;91.90
39519;DHT22;25200;53.394;10.414;2023-02-15T02:23:05;5.20;91.90
39519;DHT22;25200;53.394;10.414;2023-02-15T02:29:19;5.20;92.00
39519;DHT22;25200;53.394;10.414;2023-02-15T02:34:31;5.10;91.90
39519;DHT22;25200;53.394;10.414;2023-02-15T02:42:35;5.10;91.90
39519;DHT22;25200;53.394;10.414;2023-02-15T02:45:09;5.10;91.90
39519;DHT22;25200;53.394;10.414;2023-02-15T02:47:43;5.10;91.90
39519;DHT22;25200;53.394;10.414;2023-02-15T02:50:15;5.10;91.90
39519;DHT22;25200;53.394;10.414;2023-02-15T02:52:42;5.10;92.00
39519;DHT22;25200;53.394;10.414;2023-02-15T03:00:31;5.00;91.90
39519;DHT22;25200;53.394;10.414;2023-02-15T03:03:06;5.00;92.00
39519;DHT22;25200;53.394;10.414;2023-02-15T03:05:39;5.00;92.00
39519;DHT22;25200;53.394;10.414;2023-02-15T03:08:07;5.00;92.00
39519;DHT22;25200;53.394;10.414;2023-02-15T03:10:37;5.00;92.00
39519;DHT22;25200;53.394;10.414;2023-02-15T03:13:04;5.00;92.00
39519;DHT22;25200;53.394;10.414;2023-02-15T03:15:33;5.00;92.00
39519;DHT22;25200;53.394;10.414;2023-02-15T03:18:24;5.00;92.00
39519;DHT22;25200;53.394;10.414;2023-02-15T03:20:52;5.00;91.90
39519;DHT22;25200;53.394;10.414;2023-02-15T03:23:24;5.00;91.90
39519;DHT22;25200;53.394;10.414;2023-02-15T03:25:56;5.00;91.90
39519;DHT22;25200;53.394;10.414;2023-02-15T03:28:53;4.90;92.00
39519;DHT22;25200;53.394;10.414;2023-02-15T03:31:21;4.90;92.00
39519;DHT22;25200;53.394;10.414;2023-02-15T03:33:54;4.90;92.00
39519;DHT22;25200;53.394;10.414;2023-02-15T03:36:26;4.90;92.00
39519;DHT22;25200;53.394;10.414;2023-02-15T03:44:33;4.80;92.00
39519;DHT22;25200;53.394;10.414;2023-02-15T03:47:05;4.80;92.00
39519;DHT22;25200;53.394;10.414;2023-02-15T03:50:00;4.80;92.00
39519;DHT22;25200;53.394;10.414;2023-02-15T03:52:28;4.80;92.00
39519;DHT22;25200;53.394;10.414;2023-02-15T03:54:55;4.80;92.00
39519;DHT22;25200;53.394;10.414;2023-02-15T03:57:26;4.70;92.00
39519;DHT22;25200;53.394;10.414;2023-02-15T04:05:44;4.70;92.00
39519;DHT22;25200;53.394;10.414;2023-02-15T04:08:10;4.70;92.00
39519;DHT22;25200;53.394;10.414;2023-02-15T04:10:36;4.70;92.00
39519;DHT22;25200;53.394;10.414;2023-02-15T04:13:21;4.70;92.00
39519;DHT22;25200;53.394;10.414;2023-02-15T04:15:46;4.70;92.00
39519;DHT22;25200;53.394;10.414;2023-02-15T04:18:31;4.70;92.10
39519;DHT22;25200;53.394;10.414;2023-02-15T04:21:15;4.60;92.00
39519;DHT22;25200;53.394;10.414;2023-02-15T04:24:00;4.60;92.00
39519;DHT22;25200;53.394;10.414;2023-02-15T04:26:44;4.60;92.00
39519;DHT22;25200;53.394;10.414;2023-02-15T04:29:09;4.60;92.10
39519;DHT22;25200;53.394;10.414;2023-02-15T04:31:35;4.60;92.10
39519;DHT22;25200;53.394;10.414;2023-02-15T04:34:01;4.50;92.10
39519;DHT22;25200;53.394;10.414;2023-02-15T04:36:26;4.50;92.10
39519;DHT22;25200;53.394;10.414;2023-02-15T04:38:52;4.50;92.10
39519;DHT22;25200;53.394;10.414;2023-02-15T04:41:17;4.50;92.10
39519;DHT22;25200;53.394;10.414;2023-02-15T04:43:43;4.40;92.00
39519;DHT22;25200;53.394;10.414;2023-02-15T04:46:09;4.40;92.00
39519;DHT22;25200;53.394;10.414;2023-02-15T04:48:34;4.40;92.10
39519;DHT22;25200;53.394;10.414;2023-02-15T04:51:05;4.40;92.10
39519;DHT22;25200;53.394;10.414;2023-02-15T04:53:32;4.40;92.10
39519;DHT22;25200;53.394;10.414;2023-02-15T04:55:57;4.40;92.30
39519;DHT22;25200;53.394;10.414;2023-02-15T04:58:23;4.40;92.10
39519;DHT22;25200;53.394;10.414;2023-02-15T05:00:49;4.30;92.00
39519;DHT22;25200;53.394;10.414;2023-02-15T05:03:14;4.30;92.00
39519;DHT22;25200;53.394;10.414;2023-02-15T05:05:40;4.30;92.10
39519;DHT22;25200;53.394;10.414;2023-02-15T05:08:06;4.30;92.10
39519;DHT22;25200;53.394;10.414;2023-02-15T05:10:31;4.30;92.00
39519;DHT22;25200;53.394;10.414;2023-02-15T05:12:57;4.30;92.10
39519;DHT22;25200;53.394;10.414;2023-02-15T05:15:23;4.30;92.10
39519;DHT22;25200;53.394;10.414;2023-02-15T05:17:48;4.30;92.00
39519;DHT22;25200;53.394;10.414;2023-02-15T05:20:15;4.30;92.00
39519;DHT22;25200;53.394;10.414;2023-02-15T05:22:40;4.30;92.00
39519;DHT22;25200;53.394;10.414;2023-02-15T05:25:07;4.30;92.00
39519;DHT22;25200;53.394;10.414;2023-02-15T05:27:52;4.30;92.00
39519;DHT22;25200;53.394;10.414;2023-02-15T05:30:36;4.30;92.00
39519;DHT22;25200;53.394;10.414;2023-02-15T05:33:01;4.30;92.00
39519;DHT22;25200;53.394;10.414;2023-02-15T05:35:27;4.20;92.00
39519;DHT22;25200;53.394;10.414;2023-02-15T05:37:53;4.20;92.00
39519;DHT22;25200;53.394;10.414;2023-02-15T05:40:18;4.20;92.00
39519;DHT22;25200;53.394;10.414;2023-02-15T05:42:44;4.20;92.10
39519;DHT22;25200;53.394;10.414;2023-02-15T05:45:09;4.20;92.10
39519;DHT22;25200;53.394;10.414;2023-02-15T05:47:35;4.20;92.10
39519;DHT22;25200;53.394;10.414;2023-02-15T05:50:01;4.20;92.00
39519;DHT22;25200;53.394;10.414;2023-02-15T05:52:26;4.10;92.00
39519;DHT22;25200;53.394;10.414;2023-02-15T05:54:52;4.10;92.10
39519;DHT22;25200;53.394;10.414;2023-02-15T05:57:18;4.10;92.00
39519;DHT22;25200;53.394;10.414;2023-02-15T05:59:43;4.10;92.10
39519;DHT22;25200;53.394;10.414;2023-02-15T06:02:09;4.10;92.00
39519;DHT22;25200;53.394;10.414;2023-02-15T06:04:34;4.10;92.00
39519;DHT22;25200;53.394;10.414;2023-02-15T06:07:00;4.10;92.00
39519;DHT22;25200;53.394;10.414;2023-02-15T06:09:26;4.10;92.00
39519;DHT22;25200;53.394;10.414;2023-02-15T06:11:51;4.10;92.00
39519;DHT22;25200;53.394;10.414;2023-02-15T06:14:17;4.10;92.00
39519;DHT22;25200;53.394;10.414;2023-02-15T06:16:43;4.10;92.00
39519;DHT22;25200;53.394;10.414;2023-02-15T06:19:08;4.10;92.00
39519;DHT22;25200;53.394;10.414;2023-02-15T06:21:34;4.10;92.10
39519;DHT22;25200;53.394;10.414;2023-02-15T06:23:59;4.10;92.00
39519;DHT22;25200;53.394;10.414;2023-02-15T06:26:25;4.00;92.00
39519;DHT22;25200;53.394;10.414;2023-02-15T06:28:51;4.00;92.00
39519;DHT22;25200;53.394;10.414;2023-02-15T06:31:16;4.00;92.00
39519;DHT22;25200;53.394;10.414;2023-02-15T06:33:42;4.00;92.10
39519;DHT22;25200;53.394;10.414;2023-02-15T06:36:08;4.00;92.10
39519;DHT22;25200;53.394;10.414;2023-02-15T06:38:34;4.00;92.00
39519;DHT22;25200;53.394;10.414;2023-02-15T06:40:59;4.00;92.00
39519;DHT22;25200;53.394;10.414;2023-02-15T06:43:25;4.00;92.00
39519;DHT22;25200;53.394;10.414;2023-02-15T06:45:50;4.00;92.00
39519;DHT22;25200;53.394;10.414;2023-02-15T06:48:16;4.00;92.00
39519;DHT22;25200;53.394;10.414;2023-02-15T06:50:42;4.00;92.10
39519;DHT22;25200;53.394;10.414;2023-02-15T06:53:07;3.90;92.10
39519;DHT22;25200;53.394;10.414;2023-02-15T06:55:33;3.90;92.20
39519;DHT22;25200;53.394;10.414;2023-02-15T06:57:59;3.90;92.20
39519;DHT22;25200;53.394;10.414;2023-02-15T07:00:24;3.90;92.40
39519;DHT22;25200;53.394;10.414;2023-02-15T07:02:54;3.90;92.20
39519;DHT22;25200;53.394;10.414;2023-02-15T07:05:24;3.90;92.20
39519;DHT22;25200;53.394;10.414;2023-02-15T07:07:50;3.90;92.40
39519;DHT22;25200;53.394;10.414;2023-02-15T07:10:16;3.90;92.20
39519;DHT22;25200;53.394;10.414;2023-02-15T07:12:41;3.90;92.20
39519;DHT22;25200;53.394;10.414;2023-02-15T07:15:13;3.80;92.30
39519;DHT22;25200;53.394;10.414;2023-02-15T07:17:39;3.90;92.20
39519;DHT22;25200;53.394;10.414;2023-02-15T07:20:17;3.80;92.20
39519;DHT22;25200;53.394;10.414;2023-02-15T07:22:43;3.90;92.10
39519;DHT22;25200;53.394;10.414;2023-02-15T07:25:10;3.90;92.10
39519;DHT22;25200;53.394;10.414;2023-02-15T07:27:37;3.90;92.10
39519;DHT22;25200;53.394;10.414;2023-02-15T07:30:04;3.90;92.40
39519;DHT22;25200;53.394;10.414;2023-02-15T07:32:31;3.90;92.30
39519;DHT22;25200;53.394;10.414;2023-02-15T07:34:58;3.90;92.20
39519;DHT22;25200;53.394;10.414;2023-02-15T07:37:23;3.90;92.20
39519;DHT22;25200;53.394;10.414;2023-02-15T07:39:49;3.90;92.10
39519;DHT22;25200;53.394;10.414;2023-02-15T07:42:15;3.90;92.10
39519;DHT22;25200;53.394;10.414;2023-02-15T07:44:40;3.90;92.10
39519;DHT22;25200;53.394;10.414;2023-02-15T07:47:06;3.90;92.20
39519;DHT22;25200;53.394;10.414;2023-02-15T07:49:32;3.90;92.10
39519;DHT22;25200;53.394;10.414;2023-02-15T07:52:00;4.00;92.20
39519;DHT22;25200;53.394;10.414;2023-02-15T07:54:26;4.00;92.20
39519;DHT22;25200;53.394;10.414;2023-02-15T07:56:52;4.00;92.10
39519;DHT22;25200;53.394;10.414;2023-02-15T07:59:17;4.00;92.10
39519;DHT22;25200;53.394;10.414;2023-02-15T08:01:43;4.00;92.10
39519;DHT22;25200;53.394;10.414;2023-02-15T08:04:09;4.00;92.30
39519;DHT22;25200;53.394;10.414;2023-02-15T08:06:37;4.00;92.40
39519;DHT22;25200;53.394;10.414;2023-02-15T08:09:07;4.00;92.20
39519;DHT22;25200;53.394;10.414;2023-02-15T08:11:35;4.10;92.20
39519;DHT22;25200;53.394;10.414;2023-02-15T08:14:14;4.10;92.20
39519;DHT22;25200;53.394;10.414;2023-02-15T08:21:38;4.10;92.10
39519;DHT22;25200;53.394;10.414;2023-02-15T08:24:05;4.10;92.10
39519;DHT22;25200;53.394;10.414;2023-02-15T08:26:32;4.20;92.10
39519;DHT22;25200;53.394;10.414;2023-02-15T08:29:00;4.20;92.00
39519;DHT22;25200;53.394;10.414;2023-02-15T08:31:27;4.20;92.00
39519;DHT22;25200;53.394;10.414;2023-02-15T08:33:54;4.20;92.00
39519;DHT22;25200;53.394;10.414;2023-02-15T08:36:26;4.20;92.00
39519;DHT22;25200;53.394;10.414;2023-02-15T08:38:52;4.20;92.00
39519;DHT22;25200;53.394;10.414;2023-02-15T08:43:45;4.20;92.00
39519;DHT22;25200;53.394;10.414;2023-02-15T08:46:13;4.30;92.00
39519;DHT22;25200;53.394;10.414;2023-02-15T08:48:43;4.30;92.00
39519;DHT22;25200;53.394;10.414;2023-02-15T08:51:17;4.30;92.00
39519;DHT22;25200;53.394;10.414;2023-02-15T08:53:46;4.40;92.00
39519;DHT22;25200;53.394;10.414;2023-02-15T08:56:15;4.40;92.00
39519;DHT22;25200;53.394;10.414;2023-02-15T08:58:40;4.40;92.00
39519;DHT22;25200;53.394;10.414;2023-02-15T09:01:10;4.40;91.90
39519;DHT22;25200;53.394;10.414;2023-02-15T09:03:37;4.40;91.90
39519;DHT22;25200;53.394;10.414;2023-02-15T09:06:03;4.40;91.90
39519;DHT22;25200;53.394;10.414;2023-02-15T09:08:28;4.40;91.90
39519;DHT22;25200;53.394;10.414;2023-02-15T09:11:03;4.50;91.90
39519;DHT22;25200;53.394;10.414;2023-02-15T09:13:29;4.40;91.90
39519;DHT22;25200;53.394;10.414;2023-02-15T09:16:03;4.50;91.90
39519;DHT22;25200;53.394;10.414;2023-02-15T09:18:35;4.50;91.90
39519;DHT22;25200;53.394;10.414;2023-02-15T09:21:10;4.50;91.90
39519;DHT22;25200;53.394;10.414;2023-02-15T09:23:36;4.50;91.90
39519;DHT22;25200;53.394;10.414;2023-02-15T09:26:04;4.50;91.90
39519;DHT22;25200;53.394;10.414;2023-02-15T09:28:30;4.50;91.90
39519;DHT22;25200;53.394;10.414;2023-02-15T09:31:07;4.50;91.90
39519;DHT22;25200;53.394;10.414;2023-02-15T09:33:34;4.50;91.90
39519;DHT22;25200;53.394;10.414;2023-02-15T09:36:00;4.60;91.90
39519;DHT22;25200;53.394;10.414;2023-02-15T09:38:26;4.60;91.90
39519;DHT22;25200;53.394;10.414;2023-02-15T09:49:45;4.70;91.90
39519;DHT22;25200;53.394;10.414;2023-02-15T09:56:06;4.80;91.90
39519;DHT22;25200;53.394;10.414;2023-02-15T10:09:09;4.90;91.90
39519;DHT22;25200;53.394;10.414;2023-02-15T10:11:54;4.90;91.90
39519;DHT22;25200;53.394;10.414;2023-02-15T10:14:37;5.00;91.90
39519;DHT22;25200;53.394;10.414;2023-02-15T10:25:28;5.10;91.80
39519;DHT22;25200;53.394;10.414;2023-02-15T10:28:02;5.10;91.80
39519;DHT22;25200;53.394;10.414;2023-02-15T10:30:39;5.20;91.80
39519;DHT22;25200;53.394;10.414;2023-02-15T10:33:38;5.20;91.80
39519;DHT22;25200;53.394;10.414;2023-02-15T11:04:34;5.50;91.90
39519;DHT22;25200;53.394;10.414;2023-02-15T11:07:08;5.50;91.90
39519;DHT22;25200;53.394;10.414;2023-02-15T11:09:45;5.50;91.80
39519;DHT22;25200;53.394;10.414;2023-02-15T11:12:16;5.50;91.90
39519;DHT22;25200;53.394;10.414;2023-02-15T11:14:59;5.60;91.90
39519;DHT22;25200;53.394;10.414;2023-02-15T11:17:40;5.60;91.90
39519;DHT22;25200;53.394;10.414;2023-02-15T11:20:24;5.60;91.90
39519;DHT22;25200;53.394;10.414;2023-02-15T11:22:51;5.70;91.90
39519;DHT22;25200;53.394;10.414;2023-02-15T11:25:38;5.70;91.90
39519;DHT22;25200;53.394;10.414;2023-02-15T11:28:16;5.70;91.90
39519;DHT22;25200;53.394;10.414;2023-02-15T11:30:46;5.70;91.90
39519;DHT22;25200;53.394;10.414;2023-02-15T11:33:29;5.80;91.90
39519;DHT22;25200;53.394;10.414;2023-02-15T11:36:12;5.80;91.90
39519;DHT22;25200;53.394;10.414;2023-02-15T11:38:39;5.90;92.00
39519;DHT22;25200;53.394;10.414;2023-02-15T11:41:14;5.90;91.90
39519;DHT22;25200;53.394;10.414;2023-02-15T11:43:58;5.90;91.90
39519;DHT22;25200;53.394;10.414;2023-02-15T11:46:26;6.00;91.90
39519;DHT22;25200;53.394;10.414;2023-02-15T11:48:52;6.00;91.90
39519;DHT22;25200;53.394;10.414;2023-02-15T11:51:19;6.00;91.90
39519;DHT22;25200;53.394;10.414;2023-02-15T11:53:46;6.00;91.90
39519;DHT22;25200;53.394;10.414;2023-02-15T11:56:18;6.10;91.90
39519;DHT22;25200;53.394;10.414;2023-02-15T12:01:28;6.20;91.90
39519;DHT22;25200;53.394;10.414;2023-02-15T12:04:06;6.30;91.90
39519;DHT22;25200;53.394;10.414;2023-02-15T12:06:41;6.30;91.90
39519;DHT22;25200;53.394;10.414;2023-02-15T12:09:31;6.30;91.80
39519;DHT22;25200;53.394;10.414;2023-02-15T12:12:20;6.40;91.90
39519;DHT22;25200;53.394;10.414;2023-02-15T12:14:48;6.50;91.90
39519;DHT22;25200;53.394;10.414;2023-02-15T12:17:15;6.50;91.90
39519;DHT22;25200;53.394;10.414;2023-02-15T12:19:42;6.50;91.90
39519;DHT22;25200;53.394;10.414;2023-02-15T12:22:28;6.60;91.90
39519;DHT22;25200;53.394;10.414;2023-02-15T12:24:58;6.60;91.90
39519;DHT22;25200;53.394;10.414;2023-02-15T12:27:27;6.60;91.90
39519;DHT22;25200;53.394;10.414;2023-02-15T12:29:59;6.70;92.00
39519;DHT22;25200;53.394;10.414;2023-02-15T12:32:31;6.70;92.00
39519;DHT22;25200;53.394;10.414;2023-02-15T12:35:09;6.80;92.00
39519;DHT22;25200;53.394;10.414;2023-02-15T12:37:38;6.90;92.00
39519;DHT22;25200;53.394;10.414;2023-02-15T12:40:27;6.90;92.00
39519;DHT22;25200;53.394;10.414;2023-02-15T12:42:53;7.00;92.00
39519;DHT22;25200;53.394;10.414;2023-02-15T12:45:28;7.00;92.00
39519;DHT22;25200;53.394;10.414;2023-02-15T12:50:47;7.10;92.00
39519;DHT22;25200;53.394;10.414;2023-02-15T12:53:16;7.10;92.00
39519;DHT22;25200;53.394;10.414;2023-02-15T12:58:28;7.10;92.10
39519;DHT22;25200;53.394;10.414;2023-02-15T13:01:22;7.10;92.10
39519;DHT22;25200;53.394;10.414;2023-02-15T13:04:21;7.20;92.10
39519;DHT22;25200;53.394;10.414;2023-02-15T13:06:50;7.20;92.10
39519;DHT22;25200;53.394;10.414;2023-02-15T13:12:30;7.40;92.20
39519;DHT22;25200;53.394;10.414;2023-02-15T13:14:58;7.40;92.10
39519;DHT22;25200;53.394;10.414;2023-02-15T13:17:35;7.40;92.10
39519;DHT22;25200;53.394;10.414;2023-02-15T13:20:04;7.50;92.20
39519;DHT22;25200;53.394;10.414;2023-02-15T13:22:42;7.50;92.20
39519;DHT22;25200;53.394;10.414;2023-02-15T13:25:28;7.60;92.10
39519;DHT22;25200;53.394;10.414;2023-02-15T13:28:00;7.60;92.10
39519;DHT22;25200;53.394;10.414;2023-02-15T13:30:36;7.50;92.00
39519;DHT22;25200;53.394;10.414;2023-02-15T13:33:19;7.50;92.00
39519;DHT22;25200;53.394;10.414;2023-02-15T13:41:33;7.40;92.20
39519;DHT22;25200;53.394;10.414;2023-02-15T13:50:02;7.50;92.20
39519;DHT22;25200;53.394;10.414;2023-02-15T13:52:34;7.50;92.10
39519;DHT22;25200;53.394;10.414;2023-02-15T13:58:09;7.40;92.10
39519;DHT22;25200;53.394;10.414;2023-02-15T14:00:52;7.40;92.20
39519;DHT22;25200;53.394;10.414;2023-02-15T14:03:33;7.40;92.20
39519;DHT22;25200;53.394;10.414;2023-02-15T14:20:04;7.30;92.40
39519;DHT22;25200;53.394;10.414;2023-02-15T14:22:41;7.30;92.40
39519;DHT22;25200;53.394;10.414;2023-02-15T14:25:16;7.30;92.40
39519;DHT22;25200;53.394;10.414;2023-02-15T14:28:02;7.20;92.40
39519;DHT22;25200;53.394;10.414;2023-02-15T14:30:37;7.20;92.50
39519;DHT22;25200;53.394;10.414;2023-02-15T14:35:47;7.20;92.70
39519;DHT22;25200;53.394;10.414;2023-02-15T14:41:18;7.30;92.80
39519;DHT22;25200;53.394;10.414;2023-02-15T14:48:57;7.50;93.10
39519;DHT22;25200;53.394;10.414;2023-02-15T14:51:58;7.50;93.00
39519;DHT22;25200;53.394;10.414;2023-02-15T14:59:43;7.60;92.60
39519;DHT22;25200;53.394;10.414;2023-02-15T15:02:11;7.60;92.60
39519;DHT22;25200;53.394;10.414;2023-02-15T15:04:52;7.60;92.50
39519;DHT22;25200;53.394;10.414;2023-02-15T15:07:44;7.60;92.50
39519;DHT22;25200;53.394;10.414;2023-02-15T15:12:49;7.50;92.40
39519;DHT22;25200;53.394;10.414;2023-02-15T15:49:12;6.80;92.20
39519;DHT22;25200;53.394;10.414;2023-02-15T15:51:40;6.70;92.20
39519;DHT22;25200;53.394;10.414;2023-02-15T15:54:18;6.70;92.30
39519;DHT22;25200;53.394;10.414;2023-02-15T15:56:47;6.70;92.30
39519;DHT22;25200;53.394;10.414;2023-02-15T15:59:23;6.60;92.30
39519;DHT22;25200;53.394;10.414;2023-02-15T16:01:50;6.60;92.30
39519;DHT22;25200;53.394;10.414;2023-02-15T16:04:28;6.60;92.40
39519;DHT22;25200;53.394;10.414;2023-02-15T16:06:55;6.50;92.30
39519;DHT22;25200;53.394;10.414;2023-02-15T16:11:52;6.50;92.60
39519;DHT22;25200;53.394;10.414;2023-02-15T16:14:31;6.40;92.30
39519;DHT22;25200;53.394;10.414;2023-02-15T16:17:00;6.40;92.30
39519;DHT22;25200;53.394;10.414;2023-02-15T16:19:35;6.30;92.30
39519;DHT22;25200;53.394;10.414;2023-02-15T16:22:02;6.30;92.30
39519;DHT22;25200;53.394;10.414;2023-02-15T16:24:55;6.30;92.30
39519;DHT22;25200;53.394;10.414;2023-02-15T16:27:45;6.30;92.30
39519;DHT22;25200;53.394;10.414;2023-02-15T16:30:25;6.20;92.20
39519;DHT22;25200;53.394;10.414;2023-02-15T16:33:14;6.10;92.20
39519;DHT22;25200;53.394;10.414;2023-02-15T16:38:18;6.00;92.30
39519;DHT22;25200;53.394;10.414;2023-02-15T16:40:53;6.00;92.20
39519;DHT22;25200;53.394;10.414;2023-02-15T16:43:29;5.90;92.20
39519;DHT22;25200;53.394;10.414;2023-02-15T16:46:10;5.90;92.20
39519;DHT22;25200;53.394;10.414;2023-02-15T16:48:40;5.90;92.20
39519;DHT22;25200;53.394;10.414;2023-02-15T16:51:07;5.90;92.30
39519;DHT22;25200;53.394;10.414;2023-02-15T16:53:33;5.80;92.20
39519;DHT22;25200;53.394;10.414;2023-02-15T16:56:01;5.80;92.20
39519;DHT22;25200;53.394;10.414;2023-02-15T17:00:58;5.70;92.20
39519;DHT22;25200;53.394;10.414;2023-02-15T17:03:25;5.70;92.20
39519;DHT22;25200;53.394;10.414;2023-02-15T17:05:55;5.70;92.20
39519;DHT22;25200;53.394;10.414;2023-02-15T17:08:25;5.70;92.20
39519;DHT22;25200;53.394;10.414;2023-02-15T17:13:29;5.60;92.10
39519;DHT22;25200;53.394;10.414;2023-02-15T17:18:23;5.50;92.10
39519;DHT22;25200;53.394;10.414;2023-02-15T17:20:52;5.50;92.10
39519;DHT22;25200;53.394;10.414;2023-02-15T17:23:41;5.50;92.10
39519;DHT22;25200;53.394;10.414;2023-02-15T17:26:19;5.50;92.10
39519;DHT22;25200;53.394;10.414;2023-02-15T17:28:48;5.40;92.10
39519;DHT22;25200;53.394;10.414;2023-02-15T17:31:16;5.40;92.10
39519;DHT22;25200;53.394;10.414;2023-02-15T17:33:42;5.40;92.00
39519;DHT22;25200;53.394;10.414;2023-02-15T17:36:23;5.40;92.00
39519;DHT22;25200;53.394;10.414;2023-02-15T17:39:06;5.40;92.00
39519;DHT22;25200;53.394;10.414;2023-02-15T17:41:35;5.30;92.00
39519;DHT22;25200;53.394;10.414;2023-02-15T17:44:04;5.30;92.00
39519;DHT22;25200;53.394;10.414;2023-02-15T17:46:34;5.30;92.00
39519;DHT22;25200;53.394;10.414;2023-02-15T17:49:01;5.30;92.00
39519;DHT22;25200;53.394;10.414;2023-02-15T17:51:27;5.30;92.10
39519;DHT22;25200;53.394;10.414;2023-02-15T17:53:53;5.20;92.00
39519;DHT22;25200;53.394;10.414;2023-02-15T17:56:38;5.20;92.00
39519;DHT22;25200;53.394;10.414;2023-02-15T17:59:04;5.20;92.00
39519;DHT22;25200;53.394;10.414;2023-02-15T18:01:36;5.20;92.10
39519;DHT22;25200;53.394;10.414;2023-02-15T18:04:22;5.20;92.00
39519;DHT22;25200;53.394;10.414;2023-02-15T18:07:08;5.20;92.00
39519;DHT22;25200;53.394;10.414;2023-02-15T18:09:53;5.10;92.00
39519;DHT22;25200;53.394;10.414;2023-02-15T18:12:37;5.20;92.00
39519;DHT22;25200;53.394;10.414;2023-02-15T18:15:04;5.20;92.00
39519;DHT22;25200;53.394;10.414;2023-02-15T18:17:36;5.10;92.00
39519;DHT22;25200;53.394;10.414;2023-02-15T18:20:14;5.10;92.00
39519;DHT22;25200;53.394;10.414;2023-02-15T18:22:43;5.10;92.00
39519;DHT22;25200;53.394;10.414;2023-02-15T18:25:14;5.00;92.00
39519;DHT22;25200;53.394;10.414;2023-02-15T18:27:40;5.00;92.00
39519;DHT22;25200;53.394;10.414;2023-02-15T18:30:06;5.00;92.00
39519;DHT22;25200;53.394;10.414;2023-02-15T18:32:35;5.00;92.00
39519;DHT22;25200;53.394;10.414;2023-02-15T18:35:03;5.00;92.00
39519;DHT22;25200;53.394;10.414;2023-02-15T18:37:31;4.90;92.00
39519;DHT22;25200;53.394;10.414;2023-02-15T18:40:00;4.90;92.00
39519;DHT22;25200;53.394;10.414;2023-02-15T18:42:33;4.90;92.00
39519;DHT22;25200;53.394;10.414;2023-02-15T18:47:39;4.80;92.00
39519;DHT22;25200;53.394;10.414;2023-02-15T18:50:06;4.80;92.00
39519;DHT22;25200;53.394;10.414;2023-02-15T18:52:34;4.80;92.00
39519;DHT22;25200;53.394;10.414;2023-02-15T18:55:04;4.80;92.00
39519;DHT22;25200;53.394;10.414;2023-02-15T18:57:37;4.80;92.00
39519;DHT22;25200;53.394;10.414;2023-02-15T19:00:05;4.80;92.00
39519;DHT22;25200;53.394;10.414;2023-02-15T19:02:31;4.70;91.90
39519;DHT22;25200;53.394;10.414;2023-02-15T19:04:57;4.70;92.00
39519;DHT22;25200;53.394;10.414;2023-02-15T19:07:24;4.70;92.00
39519;DHT22;25200;53.394;10.414;2023-02-15T19:09:55;4.60;91.90
39519;DHT22;25200;53.394;10.414;2023-02-15T19:12:22;4.70;91.90
39519;DHT22;25200;53.394;10.414;2023-02-15T19:14:48;4.60;91.90
39519;DHT22;25200;53.394;10.414;2023-02-15T19:17:19;4.60;91.90
39519;DHT22;25200;53.394;10.414;2023-02-15T19:19:46;4.60;91.90
39519;DHT22;25200;53.394;10.414;2023-02-15T19:22:29;4.50;91.90